createdAt,value
2022-10-08T00:01:24.700Z,95.24
2022-10-08T00:03:54.978Z,95.16
2022-10-08T00:06:29.232Z,95.42
2022-10-08T00:09:03.392Z,95.30
2022-10-08T00:11:33.990Z,95.42
2022-10-08T00:14:03.083Z,95.30
2022-10-08T00:16:37.294Z,95.31
2022-10-08T00:19:08.581Z,95.38
2022-10-08T00:21:39.373Z,95.36
2022-10-08T00:24:09.179Z,95.46
2022-10-08T00:26:42.783Z,95.43
2022-10-08T00:29:14.598Z,95.69
2022-10-08T00:31:46.469Z,95.62
2022-10-08T00:34:17.229Z,95.82
2022-10-08T00:36:45.472Z,95.96
2022-10-08T00:39:16.517Z,96.21
2022-10-08T00:41:46.888Z,96.29
2022-10-08T00:44:45.280Z,96.43
2022-10-08T00:47:20.287Z,96.58
2022-10-08T00:49:50.962Z,96.46
2022-10-08T00:52:20.578Z,96.50
2022-10-08T00:54:51.187Z,96.67
2022-10-08T00:57:20.768Z,96.84
2022-10-08T00:59:48.565Z,96.86
2022-10-08T01:02:17.001Z,96.89
2022-10-08T01:04:45.366Z,97.02
2022-10-08T01:07:30.400Z,96.89
2022-10-08T01:10:22.001Z,97.15
2022-10-08T01:13:19.745Z,97.23
2022-10-08T01:16:03.134Z,97.01
2022-10-08T01:19:07.577Z,97.37
2022-10-08T01:21:51.813Z,97.46
2022-10-08T01:24:57.015Z,97.67
2022-10-08T01:27:30.560Z,97.82
2022-10-08T01:30:02.549Z,98.12
2022-10-08T01:32:36.080Z,98.31
2022-10-08T01:35:11.061Z,98.10
2022-10-08T01:37:41.865Z,98.25
2022-10-08T01:40:16.715Z,98.56
2022-10-08T01:42:46.183Z,98.67
2022-10-08T01:45:19.302Z,98.83
2022-10-08T01:47:50.632Z,99.26
2022-10-08T01:50:29.272Z,99.15
2022-10-08T01:53:03.652Z,99.37
2022-10-08T01:55:43.475Z,99.36
2022-10-08T01:58:17.795Z,99.38
2022-10-08T02:00:48.437Z,100.00
2022-10-08T02:03:16.518Z,99.95
2022-10-08T02:05:49.787Z,99.92
2022-10-08T02:08:17.952Z,99.90
2022-10-08T02:10:45.871Z,99.87
2022-10-08T02:13:13.878Z,100.00
2022-10-08T02:16:03.809Z,100.00
2022-10-08T02:19:08.700Z,100.00
2022-10-08T02:21:40.873Z,100.00
2022-10-08T02:24:41.311Z,100.00
2022-10-08T02:27:12.362Z,100.00
2022-10-08T02:30:05.852Z,100.00
2022-10-08T02:32:45.684Z,100.00
2022-10-08T02:35:23.878Z,100.00
2022-10-08T02:38:00.909Z,100.00
2022-10-08T02:40:31.570Z,100.00
2022-10-08T02:43:06.946Z,100.00
2022-10-08T02:45:43.173Z,100.00
2022-10-08T02:48:19.895Z,100.00
2022-10-08T02:50:51.210Z,100.00
2022-10-08T02:53:19.512Z,100.00
2022-10-08T02:56:05.690Z,100.00
2022-10-08T02:58:33.848Z,100.00
2022-10-08T03:01:09.682Z,100.00
2022-10-08T03:03:45.327Z,100.00
2022-10-08T03:06:14.493Z,100.00
2022-10-08T03:08:47.466Z,100.00
2022-10-08T03:11:15.328Z,100.00
2022-10-08T03:13:49.426Z,100.00
2022-10-08T03:16:22.360Z,100.00
2022-10-08T03:18:53.194Z,100.00
2022-10-08T03:21:21.541Z,100.00
2022-10-08T03:23:49.242Z,100.00
2022-10-08T03:26:19.648Z,100.00
2022-10-08T03:28:47.376Z,100.00
2022-10-08T03:31:15.389Z,100.00
2022-10-08T03:33:43.080Z,100.00
2022-10-08T03:36:10.814Z,100.00
2022-10-08T03:38:38.496Z,100.00
2022-10-08T03:41:06.198Z,100.00
2022-10-08T03:43:34.889Z,100.00
2022-10-08T03:46:03.430Z,100.00
2022-10-08T03:48:31.142Z,100.00
2022-10-08T03:51:05.191Z,100.00
2022-10-08T03:53:38.082Z,100.00
2022-10-08T03:56:28.402Z,100.00
2022-10-08T03:59:01.263Z,100.00
2022-10-08T04:01:30.157Z,100.00
2022-10-08T04:03:57.754Z,100.00
2022-10-08T04:06:25.491Z,100.00
2022-10-08T04:08:53.133Z,100.00
2022-10-08T04:11:21.341Z,100.00
2022-10-08T04:13:48.978Z,100.00
2022-10-08T04:16:18.542Z,100.00
2022-10-08T04:18:46.999Z,100.00
2022-10-08T04:21:17.570Z,100.00
2022-10-08T04:23:46.054Z,100.00
2022-10-08T04:26:15.543Z,100.00
2022-10-08T04:28:47.340Z,100.00
2022-10-08T04:31:19.907Z,100.00
2022-10-08T04:33:48.282Z,100.00
2022-10-08T04:36:18.207Z,100.00
2022-10-08T04:38:46.892Z,100.00
2022-10-08T04:41:15.835Z,100.00
2022-10-08T04:43:44.675Z,100.00
2022-10-08T04:46:15.514Z,100.00
2022-10-08T04:48:56.687Z,100.00
2022-10-08T04:51:26.893Z,100.00
2022-10-08T04:53:55.986Z,100.00
2022-10-08T04:56:26.784Z,100.00
2022-10-08T04:58:56.217Z,100.00
2022-10-08T05:01:24.499Z,100.00
2022-10-08T05:03:56.225Z,100.00
2022-10-08T05:06:27.117Z,100.00
2022-10-08T05:08:55.507Z,100.00
2022-10-08T05:11:28.078Z,100.00
2022-10-08T05:13:58.184Z,100.00
2022-10-08T05:16:27.196Z,100.00
2022-10-08T05:18:54.954Z,100.00
2022-10-08T05:21:28.969Z,100.00
2022-10-08T05:24:03.416Z,100.00
2022-10-08T05:26:57.512Z,100.00
2022-10-08T05:29:21.941Z,100.00
2022-10-08T05:31:49.559Z,100.00
2022-10-08T05:34:17.514Z,100.00
2022-10-08T05:36:45.650Z,100.00
2022-10-08T05:39:13.338Z,100.00
2022-10-08T05:41:41.732Z,100.00
2022-10-08T05:44:11.746Z,100.00
2022-10-08T05:46:40.424Z,100.00
2022-10-08T05:49:09.808Z,100.00
2022-10-08T05:51:39.521Z,100.00
2022-10-08T05:54:07.148Z,100.00
2022-10-08T05:56:34.848Z,100.00
2022-10-08T05:59:02.489Z,100.00
2022-10-08T06:01:32.662Z,100.00
2022-10-08T06:04:08.679Z,100.00
2022-10-08T06:06:38.232Z,100.00
2022-10-08T06:09:07.949Z,100.00
2022-10-08T06:11:37.612Z,100.00
2022-10-08T06:14:08.184Z,100.00
2022-10-08T06:16:36.604Z,100.00
2022-10-08T06:19:05.985Z,100.00
2022-10-08T06:21:34.753Z,100.00
2022-10-08T06:24:05.090Z,100.00
2022-10-08T06:26:36.477Z,100.00
2022-10-08T06:29:06.630Z,100.00
2022-10-08T06:31:37.875Z,100.00
2022-10-08T06:34:06.340Z,100.00
2022-10-08T06:36:35.760Z,100.00
2022-10-08T06:39:07.456Z,100.00
2022-10-08T06:41:36.018Z,100.00
2022-10-08T06:44:05.526Z,100.00
2022-10-08T06:46:33.933Z,100.00
2022-10-08T06:49:02.401Z,100.00
2022-10-08T06:51:31.210Z,100.00
2022-10-08T06:54:05.993Z,100.00
2022-10-08T06:56:36.698Z,100.00
2022-10-08T06:59:06.015Z,100.00
2022-10-08T07:01:34.476Z,100.00
2022-10-08T07:04:03.234Z,100.00
2022-10-08T07:06:31.126Z,100.00
2022-10-08T07:09:01.282Z,100.00
2022-10-08T07:11:29.989Z,100.00
2022-10-08T07:13:58.803Z,100.00
2022-10-08T07:16:28.105Z,100.00
2022-10-08T07:18:58.227Z,100.00
2022-10-08T07:21:26.634Z,100.00
2022-10-08T07:23:54.308Z,100.00
2022-10-08T07:26:24.255Z,100.00
2022-10-08T07:28:56.378Z,100.00
2022-10-08T07:31:29.064Z,100.00
2022-10-08T07:33:57.701Z,100.00
2022-10-08T07:36:26.790Z,100.00
2022-10-08T07:38:59.178Z,100.00
2022-10-08T07:41:27.809Z,100.00
2022-10-08T07:43:59.487Z,100.00
2022-10-08T07:46:32.833Z,100.00
2022-10-08T07:49:02.591Z,100.00
2022-10-08T07:51:32.651Z,100.00
2022-10-08T07:54:02.796Z,100.00
2022-10-08T07:56:32.930Z,100.00
2022-10-08T07:59:01.855Z,100.00
2022-10-08T08:01:31.104Z,100.00
2022-10-08T08:04:03.142Z,100.00
2022-10-08T08:06:32.876Z,100.00
2022-10-08T08:09:02.003Z,100.00
2022-10-08T08:11:32.536Z,100.00
2022-10-08T08:14:00.212Z,100.00
2022-10-08T08:16:30.470Z,100.00
2022-10-08T08:19:00.705Z,100.00
2022-10-08T08:21:33.880Z,100.00
2022-10-08T08:24:16.299Z,100.00
2022-10-08T08:26:44.738Z,100.00
2022-10-08T08:29:15.287Z,100.00
2022-10-08T08:31:48.193Z,100.00
2022-10-08T08:34:21.734Z,100.00
2022-10-08T08:36:52.029Z,100.00
2022-10-08T08:39:25.648Z,100.00
2022-10-08T08:41:59.082Z,100.00
2022-10-08T08:44:39.463Z,100.00
2022-10-08T08:47:15.159Z,100.00
2022-10-08T08:49:46.588Z,100.00
2022-10-08T08:52:17.325Z,100.00
2022-10-08T08:54:50.422Z,100.00
2022-10-08T08:57:42.690Z,100.00
2022-10-08T09:00:19.627Z,100.00
2022-10-08T09:03:07.542Z,100.00
2022-10-08T09:05:40.844Z,100.00
2022-10-08T09:08:22.228Z,100.00
2022-10-08T09:10:56.276Z,100.00
2022-10-08T09:13:49.012Z,100.00
2022-10-08T09:16:18.112Z,100.00
2022-10-08T09:18:51.475Z,100.00
2022-10-08T09:21:20.740Z,100.00
2022-10-08T09:23:48.958Z,100.00
2022-10-08T09:26:23.345Z,100.00
2022-10-08T09:28:56.733Z,100.00
2022-10-08T09:31:37.816Z,100.00
2022-10-08T09:34:11.467Z,100.00
2022-10-08T09:36:45.140Z,100.00
2022-10-08T09:39:31.494Z,99.95
2022-10-08T09:42:08.215Z,99.13
2022-10-08T09:44:50.431Z,98.81
2022-10-08T09:47:23.232Z,98.28
2022-10-08T09:50:03.231Z,98.13
2022-10-08T09:52:31.024Z,97.63
2022-10-08T09:55:11.947Z,97.62
2022-10-08T09:57:46.344Z,96.52
2022-10-08T10:00:27.847Z,96.56
2022-10-08T10:02:57.605Z,96.08
2022-10-08T10:05:31.148Z,96.00
2022-10-08T10:07:59.114Z,95.53
2022-10-08T10:10:43.140Z,95.46
2022-10-08T10:13:10.682Z,94.78
2022-10-08T10:16:05.531Z,94.81
2022-10-08T10:19:05.755Z,94.24
2022-10-08T10:21:47.566Z,94.22
2022-10-08T10:24:23.493Z,94.15
2022-10-08T10:26:54.879Z,93.90
2022-10-08T10:29:25.885Z,94.32
2022-10-08T10:32:01.433Z,94.00
2022-10-08T10:34:31.756Z,93.36
2022-10-08T10:37:03.508Z,93.51
2022-10-08T10:39:40.078Z,92.73
2022-10-08T10:42:37.547Z,92.16
2022-10-08T10:45:23.613Z,91.80
2022-10-08T10:47:52.221Z,91.27
2022-10-08T10:50:53.374Z,91.53
2022-10-08T10:53:34.469Z,91.07
2022-10-08T10:56:19.356Z,91.10
2022-10-08T10:59:28.715Z,90.54
2022-10-08T11:02:24.233Z,90.53
2022-10-08T11:05:33.914Z,90.48
2022-10-08T11:08:31.445Z,90.75
2022-10-08T11:11:17.690Z,90.51
2022-10-08T11:14:22.106Z,90.54
2022-10-08T11:16:58.575Z,90.76
2022-10-08T11:19:44.578Z,90.86
2022-10-08T11:22:39.340Z,90.75
2022-10-08T11:25:22.241Z,90.16
2022-10-08T11:27:55.582Z,90.46
2022-10-08T11:30:48.345Z,90.39
2022-10-08T11:33:18.291Z,90.97
2022-10-08T11:36:03.019Z,91.16
2022-10-08T11:38:46.206Z,91.52
2022-10-08T11:41:20.010Z,91.72
2022-10-08T11:43:55.743Z,91.99
2022-10-08T11:46:29.643Z,92.37
2022-10-08T11:48:58.744Z,92.73
2022-10-08T11:51:26.346Z,93.25
2022-10-08T11:54:17.657Z,92.63
2022-10-08T11:56:52.855Z,92.36
2022-10-08T11:59:26.422Z,92.59
2022-10-08T12:02:03.637Z,92.05
2022-10-08T12:04:38.721Z,92.06
2022-10-08T12:07:15.480Z,92.57
2022-10-08T12:10:04.524Z,92.67
2022-10-08T12:12:50.883Z,92.76
2022-10-08T12:15:24.924Z,92.28
2022-10-08T12:17:58.590Z,92.38
2022-10-08T12:20:29.666Z,92.48
2022-10-08T12:23:18.782Z,92.69
2022-10-08T12:25:46.339Z,92.65
2022-10-08T12:28:20.032Z,92.95
2022-10-08T12:30:51.922Z,92.96
2022-10-08T12:33:20.622Z,92.84
2022-10-08T12:35:57.285Z,92.90
2022-10-08T12:38:52.070Z,92.74
2022-10-08T12:41:26.535Z,92.84
2022-10-08T12:44:22.564Z,93.01
2022-10-08T12:47:18.023Z,93.56
2022-10-08T12:49:53.528Z,93.62
2022-10-08T12:52:22.963Z,94.01
2022-10-08T12:54:56.258Z,94.05
2022-10-08T12:57:28.152Z,94.36
2022-10-08T12:59:55.902Z,94.69
2022-10-08T13:02:40.521Z,94.78
2022-10-08T13:05:25.393Z,94.95
2022-10-08T13:07:53.445Z,95.38
2022-10-08T13:10:30.103Z,95.22
2022-10-08T13:13:25.064Z,95.68
2022-10-08T13:16:00.432Z,95.66
2022-10-08T13:18:31.503Z,95.72
2022-10-08T13:21:08.976Z,95.54
2022-10-08T13:23:40.392Z,95.65
2022-10-08T13:26:39.219Z,95.13
2022-10-08T13:29:25.141Z,95.55
2022-10-08T13:32:03.171Z,95.80
2022-10-08T13:34:49.284Z,95.86
2022-10-08T13:37:22.804Z,95.41
2022-10-08T13:40:12.369Z,95.75
2022-10-08T13:42:50.527Z,95.20
2022-10-08T13:45:20.678Z,95.11
2022-10-08T13:47:49.177Z,94.63
2022-10-08T13:50:17.379Z,94.19
2022-10-08T13:52:57.015Z,94.40
2022-10-08T13:55:30.672Z,93.13
2022-10-08T13:58:03.792Z,93.55
2022-10-08T14:00:35.114Z,93.28
2022-10-08T14:03:03.471Z,92.42
2022-10-08T14:05:34.003Z,92.09
2022-10-08T14:08:05.724Z,92.60
2022-10-08T14:10:34.179Z,92.62
2022-10-08T14:13:01.821Z,92.53
2022-10-08T14:15:29.502Z,92.04
2022-10-08T14:17:57.183Z,92.37
2022-10-08T14:20:25.173Z,91.94
2022-10-08T14:22:53.242Z,91.79
2022-10-08T14:25:24.935Z,91.81
2022-10-08T14:27:53.131Z,91.52
2022-10-08T14:30:20.869Z,91.31
2022-10-08T14:32:48.582Z,89.63
2022-10-08T14:35:16.348Z,90.51
2022-10-08T14:37:44.206Z,89.53
2022-10-08T14:40:17.551Z,90.62
2022-10-08T14:42:45.748Z,89.46
2022-10-08T14:45:13.866Z,89.97
2022-10-08T14:47:41.993Z,90.29
2022-10-08T14:50:10.168Z,89.75
2022-10-08T14:52:43.360Z,89.84
2022-10-08T14:55:12.490Z,88.14
2022-10-08T14:57:40.160Z,89.33
2022-10-08T15:00:08.718Z,89.09
2022-10-08T15:02:36.450Z,88.30
2022-10-08T15:05:04.266Z,88.21
2022-10-08T15:07:31.980Z,88.26
2022-10-08T15:09:59.967Z,88.33
2022-10-08T15:12:27.775Z,88.10
2022-10-08T15:14:55.434Z,87.82
2022-10-08T15:17:23.107Z,88.00
2022-10-08T15:19:50.760Z,87.54
2022-10-08T15:22:18.373Z,87.94
2022-10-08T15:24:46.031Z,87.73
2022-10-08T15:27:16.212Z,87.83
2022-10-08T15:29:47.660Z,88.10
2022-10-08T15:32:16.906Z,87.75
2022-10-08T15:34:44.602Z,87.76
2022-10-08T15:37:12.375Z,87.20
2022-10-08T15:39:39.969Z,87.28
2022-10-08T15:42:07.804Z,87.17
2022-10-08T15:44:35.562Z,87.35
2022-10-08T15:47:07.981Z,87.41
2022-10-08T15:49:41.460Z,87.59
2022-10-08T15:52:13.869Z,87.69
2022-10-08T15:54:42.885Z,87.77
2022-10-08T15:57:12.348Z,87.94
2022-10-08T15:59:40.282Z,88.08
2022-10-08T16:02:11.719Z,88.16
2022-10-08T16:04:42.086Z,88.14
2022-10-08T16:07:10.106Z,88.38
2022-10-08T16:09:37.765Z,88.37
2022-10-08T16:12:05.500Z,88.45
2022-10-08T16:14:33.375Z,88.30
2022-10-08T16:17:01.127Z,88.29
2022-10-08T16:19:29.587Z,88.47
2022-10-08T16:21:58.610Z,88.51
2022-10-08T16:24:26.610Z,88.73
2022-10-08T16:26:54.294Z,89.02
2022-10-08T16:29:22.081Z,89.39
2022-10-08T16:31:49.900Z,89.77
2022-10-08T16:34:25.616Z,90.17
2022-10-08T16:36:53.302Z,90.73
2022-10-08T16:39:22.670Z,90.87
2022-10-08T16:41:50.536Z,91.14
2022-10-08T16:44:20.309Z,91.44
2022-10-08T16:46:51.430Z,91.70
2022-10-08T16:49:26.295Z,91.64
2022-10-08T16:51:56.862Z,91.80
2022-10-08T16:54:25.202Z,91.75
2022-10-08T16:56:53.631Z,91.78
2022-10-08T16:59:24.082Z,91.89
2022-10-08T17:01:54.742Z,92.03
2022-10-08T17:04:24.625Z,92.10
2022-10-08T17:06:53.228Z,92.26
2022-10-08T17:09:21.717Z,92.51
2022-10-08T17:11:49.630Z,92.67
2022-10-08T17:14:17.297Z,92.76
2022-10-08T17:16:46.090Z,92.88
2022-10-08T17:19:14.039Z,92.97
2022-10-08T17:21:41.660Z,93.08
2022-10-08T17:24:10.970Z,93.22
2022-10-08T17:26:38.800Z,93.44
2022-10-08T17:29:09.237Z,93.57
2022-10-08T17:31:38.068Z,93.73
2022-10-08T17:34:06.703Z,93.74
2022-10-08T17:36:37.181Z,93.96
2022-10-08T17:39:07.424Z,93.97
2022-10-08T17:41:38.268Z,94.40
2022-10-08T17:44:08.131Z,94.66
2022-10-08T17:46:42.754Z,94.55
2022-10-08T17:49:10.497Z,95.11
2022-10-08T17:51:38.178Z,95.28
2022-10-08T17:54:08.594Z,95.31
2022-10-08T17:56:36.432Z,95.28
2022-10-08T17:59:04.799Z,95.30
2022-10-08T18:01:41.454Z,95.17
2022-10-08T18:04:14.387Z,95.12
2022-10-08T18:06:43.787Z,95.00
2022-10-08T18:09:14.032Z,95.08
2022-10-08T18:11:45.084Z,94.94
2022-10-08T18:14:12.908Z,94.81
2022-10-08T18:16:45.575Z,94.93
2022-10-08T18:19:15.600Z,94.88
2022-10-08T18:21:43.304Z,94.86
2022-10-08T18:24:12.034Z,94.94
2022-10-08T18:26:40.009Z,94.93
2022-10-08T18:29:10.761Z,94.84
2022-10-08T18:31:40.846Z,94.73
2022-10-08T18:34:12.728Z,94.79
2022-10-08T18:36:41.145Z,94.87
2022-10-08T18:39:14.590Z,94.92
2022-10-08T18:41:47.619Z,95.00
2022-10-08T18:44:19.251Z,94.80
2022-10-08T18:46:47.315Z,94.91
2022-10-08T18:49:17.840Z,95.02
2022-10-08T18:51:45.896Z,94.91
2022-10-08T18:54:13.715Z,94.75
2022-10-08T18:56:42.568Z,94.77
2022-10-08T18:59:14.574Z,94.60
2022-10-08T19:01:44.897Z,94.40
2022-10-08T19:04:18.403Z,94.66
2022-10-08T19:06:48.706Z,93.99
2022-10-08T19:09:17.555Z,94.25
2022-10-08T19:11:48.069Z,93.87
2022-10-08T19:14:18.657Z,93.77
2022-10-08T19:16:46.747Z,93.76
2022-10-08T19:19:20.252Z,93.15
2022-10-08T19:21:49.365Z,92.96
2022-10-08T19:24:19.935Z,93.18
2022-10-08T19:26:48.475Z,92.79
2022-10-08T19:29:25.185Z,92.08
2022-10-08T19:31:53.392Z,92.38
2022-10-08T19:34:24.238Z,92.08
2022-10-08T19:36:52.345Z,91.68
2022-10-08T19:39:23.245Z,91.68
2022-10-08T19:41:51.261Z,91.07
2022-10-08T19:44:19.515Z,91.28
2022-10-08T19:46:48.141Z,91.24
2022-10-08T19:49:16.893Z,91.42
2022-10-08T19:51:44.981Z,91.01
2022-10-08T19:54:13.370Z,91.10
2022-10-08T19:56:41.275Z,91.09
2022-10-08T19:59:10.988Z,90.56
2022-10-08T20:01:40.332Z,90.75
2022-10-08T20:04:10.129Z,90.23
2022-10-08T20:06:40.531Z,90.10
2022-10-08T20:09:12.865Z,89.73
2022-10-08T20:11:42.069Z,89.64
2022-10-08T20:14:10.115Z,89.20
2022-10-08T20:16:40.672Z,89.42
2022-10-08T20:19:15.325Z,89.26
2022-10-08T20:21:43.035Z,88.22
2022-10-08T20:24:10.828Z,88.39
2022-10-08T20:26:40.737Z,88.44
2022-10-08T20:29:11.611Z,88.53
2022-10-08T20:31:42.541Z,88.58
2022-10-08T20:34:19.286Z,88.46
2022-10-08T20:36:47.924Z,88.00
2022-10-08T20:39:17.703Z,87.93
2022-10-08T20:41:45.757Z,87.57
2022-10-08T20:44:13.830Z,87.32
2022-10-08T20:46:41.582Z,86.88
2022-10-08T20:49:11.177Z,86.59
2022-10-08T20:51:41.833Z,86.52
2022-10-08T20:54:11.975Z,86.40
2022-10-08T20:56:41.482Z,85.92
2022-10-08T20:59:10.827Z,85.46
2022-10-08T21:01:40.018Z,85.26
2022-10-08T21:04:08.423Z,84.87
2022-10-08T21:06:40.447Z,84.86
2022-10-08T21:09:08.697Z,84.43
2022-10-08T21:11:37.134Z,84.26
2022-10-08T21:14:05.920Z,83.94
2022-10-08T21:16:36.396Z,83.79
2022-10-08T21:19:06.742Z,83.55
2022-10-08T21:21:35.479Z,83.19
2022-10-08T21:24:03.157Z,82.83
2022-10-08T21:26:39.838Z,82.88
2022-10-08T21:29:10.269Z,81.99
2022-10-08T21:31:39.605Z,81.70
2022-10-08T21:34:07.829Z,81.46
2022-10-08T21:36:38.439Z,80.97
2022-10-08T21:39:07.885Z,80.65
2022-10-08T21:41:37.524Z,80.28
2022-10-08T21:44:08.156Z,79.94
2022-10-08T21:46:39.161Z,79.55
2022-10-08T21:49:13.661Z,79.34
2022-10-08T21:51:41.902Z,79.50
2022-10-08T21:54:11.836Z,79.48
2022-10-08T21:56:41.484Z,79.03
2022-10-08T21:59:11.990Z,79.27
2022-10-08T22:01:45.789Z,79.19
2022-10-08T22:04:16.709Z,79.18
2022-10-08T22:06:56.617Z,79.47
2022-10-08T22:09:27.375Z,79.49
2022-10-08T22:11:56.579Z,79.27
2022-10-08T22:14:24.806Z,79.41
2022-10-08T22:16:52.793Z,79.31
2022-10-08T22:19:20.687Z,79.22
2022-10-08T22:21:48.603Z,79.18
2022-10-08T22:24:16.477Z,79.49
2022-10-08T22:26:47.313Z,79.46
2022-10-08T22:29:15.257Z,79.50
2022-10-08T22:31:43.274Z,79.77
2022-10-08T22:34:11.816Z,79.77
2022-10-08T22:36:42.905Z,79.56
2022-10-08T22:39:11.213Z,78.69
2022-10-08T22:41:39.636Z,79.09
2022-10-08T22:44:07.303Z,78.92
2022-10-08T22:46:40.584Z,78.75
2022-10-08T22:49:11.583Z,78.35
2022-10-08T22:51:39.757Z,78.31
2022-10-08T22:54:07.904Z,78.03
2022-10-08T22:56:36.066Z,77.38
2022-10-08T22:59:03.718Z,77.50
2022-10-08T23:01:32.713Z,77.44
2022-10-08T23:04:00.453Z,77.38
2022-10-08T23:06:31.105Z,77.26
2022-10-08T23:09:01.698Z,77.30
2022-10-08T23:11:30.847Z,77.27
2022-10-08T23:14:00.167Z,77.23
2022-10-08T23:16:29.204Z,77.14
2022-10-08T23:18:59.896Z,77.35
2022-10-08T23:21:28.392Z,77.26
2022-10-08T23:23:57.404Z,77.42
2022-10-08T23:26:26.536Z,77.04
2022-10-08T23:28:56.953Z,77.18
2022-10-08T23:31:30.859Z,77.07
2022-10-08T23:33:59.553Z,76.39
2022-10-08T23:36:30.287Z,76.65
2022-10-08T23:38:58.127Z,76.20
2022-10-08T23:41:26.984Z,76.33
2022-10-08T23:43:57.452Z,76.33
2022-10-08T23:46:28.316Z,75.22
2022-10-08T23:48:56.806Z,75.17
2022-10-08T23:51:25.781Z,75.87
2022-10-08T23:53:53.760Z,75.62
2022-10-08T23:56:22.874Z,75.68
2022-10-08T23:58:50.971Z,75.66
